Time;durP1;ratioP1;P1;durP2;ratioP2;P2;SDS_P1;SDS_P2;PMS_P1;PMS_P2;Temp;Humidity;BMP_temperature;BMP_pressure;BME280_temperature;BME280_humidity;BME280_pressure;Samples;Min_cycle;Max_cycle;Signal;HPM_P1;HPM_P2
2022/10/28 00:09:33;;;;;;;139.90;60.30;;;;;;;12.62;100.00;101338.37;639169;1295;140475;-81
2022/10/28 00:24:36;;;;;;;121.80;58.10;;;;;;;12.62;100.00;101328.88;639638;1304;140151;-81
2022/10/28 00:39:39;;;;;;;58.40;32.30;;;;;;;12.64;100.00;101320.30;638851;1297;139731;-81
2022/10/28 00:54:43;;;;;;;51.30;31.00;;;;;;;12.71;100.00;101312.52;639245;1313;139543;-81
2022/10/28 01:09:46;;;;;;;49.30;28.70;;;;;;;12.63;100.00;101291.09;638839;1305;139547;-80
2022/10/28 01:25:31;;;;;;;40.30;26.40;;;;;;;12.55;100.00;101283.27;638995;1297;139322;-81
2022/10/28 01:41:10;;;;;;;42.60;26.30;;;;;;;12.46;100.00;101264.16;639095;1302;140092;-81
2022/10/28 01:56:18;;;;;;;50.10;27.80;;;;;;;12.53;100.00;101263.98;640037;1309;139060;-81
2022/10/28 02:11:21;;;;;;;43.40;27.20;;;;;;;12.65;100.00;101264.38;638929;1312;1205406;-81
2022/10/28 02:26:37;;;;;;;51.40;29.00;;;;;;;12.63;100.00;101259.52;638767;1305;139944;-81
2022/10/28 02:42:04;;;;;;;65.00;34.90;;;;;;;12.56;100.00;101244.44;639166;1304;139293;-81
2022/10/28 02:57:23;;;;;;;61.80;27.20;;;;;;;12.60;100.00;101245.83;639204;1300;139135;-81
2022/10/28 03:12:26;;;;;;;66.70;38.30;;;;;;;12.70;100.00;101224.91;639808;1305;139588;-82
2022/10/28 03:27:29;;;;;;;45.90;27.50;;;;;;;12.73;100.00;101215.63;640327;1311;139761;-82
2022/10/28 03:42:33;;;;;;;64.10;32.40;;;;;;;12.83;100.00;101217.34;640215;1306;139279;-82
2022/10/28 03:57:40;;;;;;;54.70;30.60;;;;;;;12.79;100.00;101220.75;640168;1305;139457;-81
2022/10/28 04:12:43;;;;;;;45.90;26.50;;;;;;;12.72;100.00;101215.10;639411;1307;139760;-83
2022/10/28 04:27:47;;;;;;;48.20;28.00;;;;;;;12.71;100.00;101194.73;639886;1311;139519;-82
2022/10/28 04:42:50;;;;;;;48.20;28.10;;;;;;;12.73;100.00;101180.41;640117;1298;139365;-81
2022/10/28 04:57:56;;;;;;;46.30;23.80;;;;;;;12.65;100.00;101162.47;643355;1306;140042;-82
2022/10/28 05:12:59;;;;;;;40.10;25.60;;;;;;;12.55;100.00;101148.16;640625;1304;140237;-82
2022/10/28 05:28:04;;;;;;;42.20;25.60;;;;;;;12.52;100.00;101135.09;640365;1310;139521;-81
2022/10/28 05:43:08;;;;;;;48.90;28.60;;;;;;;12.59;100.00;101128.35;639940;1310;139412;-81
2022/10/28 05:58:11;;;;;;;47.20;27.70;;;;;;;12.57;100.00;101127.45;639380;1305;142587;-81
2022/10/28 06:13:15;;;;;;;50.10;28.80;;;;;;;12.61;100.00;101116.25;639914;1291;140041;-81
2022/10/28 06:28:18;;;;;;;73.70;37.50;;;;;;;12.68;100.00;101103.98;639371;1307;140038;-81
2022/10/28 06:43:22;;;;;;;44.80;27.10;;;;;;;12.98;100.00;101109.14;640412;1306;139653;-82
2022/10/28 06:58:25;;;;;;;94.20;46.80;;;;;;;13.18;100.00;101113.09;640275;1295;141017;-81
2022/10/28 07:13:33;;;;;;;56.10;34.90;;;;;;;13.44;100.00;101117.20;639650;1291;139605;-82
2022/10/28 07:28:37;;;;;;;55.50;31.30;;;;;;;13.78;100.00;101119.70;640288;1303;139794;-82
2022/10/28 07:43:40;;;;;;;47.70;31.70;;;;;;;14.20;100.00;101110.70;645807;1298;140736;-82
2022/10/28 07:58:44;;;;;;;45.90;31.90;;;;;;;14.50;100.00;101116.96;641141;1311;140014;-82
2022/10/28 08:13:48;;;;;;;43.50;29.90;;;;;;;14.80;100.00;101104.13;639304;1297;140258;-82
2022/10/28 08:28:52;;;;;;;40.70;28.20;;;;;;;15.07;100.00;101104.46;639302;1313;140158;-82
2022/10/28 08:44:34;;;;;;;46.80;31.60;;;;;;;15.38;100.00;101109.31;639008;1294;139638;-82
2022/10/28 08:59:40;;;;;;;44.90;31.60;;;;;;;16.00;100.00;101093.89;639812;1313;139840;-82
2022/10/28 09:15:10;;;;;;;45.00;29.70;;;;;;;16.31;100.00;101081.51;640306;1303;139435;-81
2022/10/28 09:31:04;;;;;;;50.90;33.20;;;;;;;15.73;100.00;101067.92;639702;1298;139785;-81
2022/10/28 09:46:14;;;;;;;73.10;48.10;;;;;;;15.39;100.00;101063.39;638856;1305;139811;-81
2022/10/28 10:01:19;;;;;;;57.70;35.40;;;;;;;15.49;100.00;101052.89;639117;1313;140585;-81
2022/10/28 10:16:31;;;;;;;54.90;34.10;;;;;;;16.73;100.00;101034.83;638812;1299;143068;-81
2022/10/28 10:31:35;;;;;;;43.20;29.90;;;;;;;17.94;100.00;101025.64;640171;1307;139745;-82
2022/10/28 10:46:39;;;;;;;39.20;26.70;;;;;;;18.76;100.00;101012.71;641073;1305;140689;-81
2022/10/28 11:01:42;;;;;;;40.10;27.80;;;;;;;19.03;100.00;100999.20;639968;1295;139672;-81
2022/10/28 11:16:49;;;;;;;37.10;26.90;;;;;;;19.01;100.00;100983.30;639187;1313;139872;-82
2022/10/28 11:32:13;;;;;;;36.40;25.10;;;;;;;19.94;100.00;100956.14;641377;1313;139694;-82
2022/10/28 11:47:16;;;;;;;32.00;23.70;;;;;;;20.33;100.00;100948.41;639433;1312;139383;-82
2022/10/28 12:02:26;;;;;;;33.00;21.70;;;;;;;19.72;100.00;100972.25;640981;1291;139413;-79
2022/10/28 12:17:49;;;;;;;32.70;21.50;;;;;;;19.18;100.00;100983.30;639071;1307;140047;-83
2022/10/28 12:33:04;;;;;;;35.30;22.80;;;;;;;18.70;100.00;100957.86;639037;1307;139361;-83
2022/10/28 12:48:32;;;;;;;29.90;21.30;;;;;;;18.81;100.00;100952.80;639014;1308;139491;-83
2022/10/28 13:03:38;;;;;;;28.20;19.10;;;;;;;20.09;100.00;100946.30;639896;1313;139355;-83
2022/10/28 13:19:35;;;;;;;28.50;20.30;;;;;;;19.96;100.00;100920.16;640019;1312;139489;-82
2022/10/28 13:34:40;;;;;;;26.20;17.60;;;;;;;20.26;100.00;100905.89;639265;1313;139470;-83
2022/10/28 13:50:08;;;;;;;26.00;18.60;;;;;;;21.75;97.34;100902.55;638756;1312;139455;-83
2022/10/28 14:05:14;;;;;;;30.50;22.90;;;;;;;19.52;100.00;100873.27;638895;1307;139983;-83
2022/10/28 14:20:27;;;;;;;34.40;25.90;;;;;;;18.99;100.00;100861.58;641672;1307;1083472;-83
2022/10/28 14:35:39;;;;;;;53.10;39.00;;;;;;;19.04;100.00;100843.54;639712;1301;139555;-83
2022/10/28 14:50:46;;;;;;;49.00;30.60;;;;;;;19.11;100.00;100819.81;640775;1313;139355;-82
2022/10/28 15:05:50;;;;;;;35.40;24.40;;;;;;;18.35;100.00;100804.36;639311;1313;139520;-83
2022/10/28 15:21:10;;;;;;;38.40;24.40;;;;;;;18.05;100.00;100817.38;639220;1301;140036;-82
2022/10/28 15:36:18;;;;;;;37.60;26.80;;;;;;;17.95;100.00;100839.80;639570;1305;139627;-83
2022/10/28 15:51:24;;;;;;;57.60;41.40;;;;;;;17.87;100.00;100860.46;640188;1295;139633;-83
2022/10/28 16:06:33;;;;;;;71.30;42.30;;;;;;;17.77;100.00;100855.83;639985;1298;139896;-83
2022/10/28 16:21:37;;;;;;;53.70;33.20;;;;;;;17.66;100.00;100832.83;640135;1313;139722;-83
2022/10/28 16:36:41;;;;;;;51.50;29.20;;;;;;;17.62;100.00;100827.80;641153;1311;139925;-83
2022/10/28 16:51:44;;;;;;;49.70;30.90;;;;;;;17.52;100.00;100810.55;640245;1298;140280;-83
2022/10/28 17:06:47;;;;;;;63.10;37.50;;;;;;;17.43;100.00;100816.02;640133;1313;139677;-85
2022/10/28 17:21:51;;;;;;;58.30;35.30;;;;;;;17.37;100.00;100765.95;639516;1313;141562;-82
2022/10/28 17:36:54;;;;;;;44.40;29.70;;;;;;;17.34;100.00;100774.79;640667;1297;139419;-82
2022/10/28 17:51:57;;;;;;;40.10;26.10;;;;;;;17.30;100.00;100784.77;639936;1298;140601;-81
2022/10/28 18:07:01;;;;;;;40.60;25.90;;;;;;;17.39;100.00;100778.43;639698;1298;140008;-82
2022/10/28 18:22:04;;;;;;;39.10;25.00;;;;;;;17.44;100.00;100760.02;641798;1297;141051;-82
2022/10/28 18:37:08;;;;;;;41.50;25.10;;;;;;;17.40;100.00;100740.88;639858;1313;139516;-82
2022/10/28 18:52:12;;;;;;;43.50;26.60;;;;;;;17.34;100.00;100744.87;639206;1313;139624;-83
2022/10/28 19:07:15;;;;;;;40.40;26.00;;;;;;;17.22;100.00;100734.77;638904;1313;140321;-81
2022/10/28 19:22:18;;;;;;;47.90;28.70;;;;;;;17.12;100.00;100716.20;638831;1313;140363;-82
2022/10/28 19:37:22;;;;;;;45.70;27.80;;;;;;;17.08;100.00;100704.05;638799;1313;139669;-83
2022/10/28 19:52:25;;;;;;;47.90;28.60;;;;;;;16.97;100.00;100695.25;639287;1297;141010;-83
2022/10/28 20:07:29;;;;;;;48.70;27.90;;;;;;;16.90;100.00;100689.21;638587;1312;141045;-83
2022/10/28 20:22:33;;;;;;;53.70;36.00;;;;;;;16.77;100.00;100696.38;640343;1313;140143;-81
2022/10/28 20:37:43;;;;;;;37.60;24.90;;;;;;;16.69;100.00;100684.96;638827;1308;140985;-82
2022/10/28 20:52:46;;;;;;;30.00;21.20;;;;;;;16.71;100.00;100673.38;639870;1291;139541;-82
2022/10/28 21:07:50;;;;;;;44.00;23.80;;;;;;;16.73;100.00;100667.14;639557;1313;139908;-82
2022/10/28 21:22:54;;;;;;;39.90;23.10;;;;;;;16.63;100.00;100651.45;637566;1306;140566;-81
2022/10/28 21:37:58;;;;;;;31.60;20.20;;;;;;;16.60;100.00;100648.21;638747;1313;139560;-82
2022/10/28 21:53:02;;;;;;;30.90;18.80;;;;;;;16.60;100.00;100639.95;638735;1310;139798;-81
2022/10/28 22:08:06;;;;;;;39.80;20.70;;;;;;;16.54;100.00;100638.21;638630;1313;139587;-81
2022/10/28 22:23:09;;;;;;;31.70;20.00;;;;;;;16.36;100.00;100632.61;638482;1313;140394;-81
2022/10/28 22:38:12;;;;;;;43.00;33.30;;;;;;;16.27;100.00;100627.12;638733;1306;139610;-82
2022/10/28 22:53:15;;;;;;;37.20;23.20;;;;;;;16.29;100.00;100622.70;638355;1308;139494;-82
2022/10/28 23:08:19;;;;;;;26.30;17.70;;;;;;;16.34;100.00;100614.29;639293;1290;141067;-82
2022/10/28 23:23:22;;;;;;;35.80;20.10;;;;;;;16.45;100.00;100597.25;638716;1313;140572;-83
2022/10/28 23:38:26;;;;;;;33.20;19.10;;;;;;;16.40;100.00;100594.09;639754;1298;139713;-82
2022/10/28 23:53:29;;;;;;;39.40;21.10;;;;;;;16.34;100.00;100589.30;639538;1313;140086;-82
